createdAt,value
2023-05-01T00:00:20.068Z,18.45
2023-05-01T00:02:47.538Z,19.52
2023-05-01T00:05:14.923Z,22.42
2023-05-01T00:07:42.324Z,19.25
2023-05-01T00:10:11.794Z,21.17
2023-05-01T00:12:39.155Z,19.23
2023-05-01T00:15:07.828Z,20.88
2023-05-01T00:17:35.211Z,18.83
2023-05-01T00:20:02.624Z,18.90
2023-05-01T00:22:30.414Z,17.73
2023-05-01T00:24:57.800Z,15.95
2023-05-01T00:27:27.265Z,18.30
2023-05-01T00:29:54.850Z,17.15
2023-05-01T00:32:22.448Z,14.85
2023-05-01T00:34:49.862Z,18.58
2023-05-01T00:37:17.370Z,16.17
2023-05-01T00:39:44.746Z,15.32
2023-05-01T00:42:12.221Z,14.70
2023-05-01T00:44:40.934Z,19.65
2023-05-01T00:47:08.430Z,16.40
2023-05-01T00:49:35.926Z,20.25
2023-05-01T00:52:03.440Z,16.05
2023-05-01T00:54:31.025Z,18.65
2023-05-01T00:56:58.477Z,17.75
2023-05-01T00:59:25.928Z,19.52
2023-05-01T01:01:56.567Z,17.60
2023-05-01T01:04:24.216Z,18.17
2023-05-01T01:06:57.192Z,17.10
2023-05-01T01:09:38.707Z,16.58
2023-05-01T01:12:15.402Z,16.50
2023-05-01T01:14:48.741Z,14.57
2023-05-01T01:17:25.227Z,16.48
2023-05-01T01:20:13.009Z,19.65
2023-05-01T01:22:44.573Z,14.23
2023-05-01T01:25:34.304Z,16.73
2023-05-01T01:28:18.055Z,12.60
2023-05-01T01:31:05.016Z,14.00
2023-05-01T01:34:00.937Z,14.82
2023-05-01T01:36:36.231Z,15.85
2023-05-01T01:39:13.347Z,15.93
2023-05-01T01:41:42.443Z,17.17
2023-05-01T01:44:17.531Z,15.00
2023-05-01T01:46:45.433Z,16.88
2023-05-01T01:49:20.716Z,14.10
2023-05-01T01:51:50.929Z,12.68
2023-05-01T01:54:22.936Z,18.13
2023-05-01T01:56:52.237Z,15.85
2023-05-01T01:59:22.571Z,13.88
2023-05-01T02:01:51.960Z,15.45
2023-05-01T02:04:22.370Z,14.93
2023-05-01T02:06:50.671Z,15.65
2023-05-01T02:09:21.244Z,12.27
2023-05-01T02:11:50.864Z,16.63
2023-05-01T02:14:19.893Z,13.82
2023-05-01T02:16:48.154Z,14.45
2023-05-01T02:19:17.034Z,14.30
2023-05-01T02:21:46.873Z,14.15
2023-05-01T02:24:14.674Z,14.85
2023-05-01T02:26:44.495Z,15.18
2023-05-01T02:29:12.115Z,13.43
2023-05-01T02:31:39.681Z,19.30
2023-05-01T02:34:07.137Z,13.52
2023-05-01T02:36:35.207Z,16.20
2023-05-01T02:39:04.154Z,14.65
2023-05-01T02:41:34.281Z,14.63
2023-05-01T02:44:04.135Z,13.20
2023-05-01T02:46:34.379Z,15.35
2023-05-01T02:49:03.608Z,13.85
2023-05-01T02:51:32.507Z,13.40
2023-05-01T02:54:00.504Z,13.75
2023-05-01T02:56:29.648Z,12.63
2023-05-01T02:58:57.162Z,16.75
2023-05-01T03:01:24.709Z,16.02
2023-05-01T03:03:52.209Z,15.35
2023-05-01T03:06:19.947Z,16.50
2023-05-01T03:08:47.761Z,14.73
2023-05-01T03:11:15.196Z,14.48
2023-05-01T03:13:44.530Z,14.10
2023-05-01T03:16:11.966Z,14.45
2023-05-01T03:18:40.445Z,15.93
2023-05-01T03:21:08.152Z,15.38
2023-05-01T03:23:35.562Z,15.25
2023-05-01T03:26:02.951Z,16.08
2023-05-01T03:28:30.553Z,15.93
2023-05-01T03:30:59.347Z,16.27
2023-05-01T03:33:27.794Z,19.05
2023-05-01T03:36:03.098Z,18.48
2023-05-01T03:38:31.277Z,18.35
2023-05-01T03:40:59.126Z,19.02
2023-05-01T03:43:26.662Z,17.73
2023-05-01T03:45:54.482Z,18.13
2023-05-01T03:48:23.253Z,20.85
2023-05-01T03:50:50.657Z,20.33
2023-05-01T03:53:18.305Z,21.30
2023-05-01T03:55:45.954Z,22.15
2023-05-01T03:58:13.315Z,17.58
2023-05-01T04:00:41.636Z,21.60
2023-05-01T04:03:09.091Z,21.50
2023-05-01T04:05:37.982Z,19.63
2023-05-01T04:08:05.953Z,19.70
2023-05-01T04:10:33.384Z,24.42
2023-05-01T04:13:00.775Z,20.35
2023-05-01T04:15:28.169Z,21.42
2023-05-01T04:17:56.774Z,23.60
2023-05-01T04:20:24.257Z,22.77
2023-05-01T04:22:53.012Z,24.23
2023-05-01T04:25:20.376Z,22.55
2023-05-01T04:27:47.807Z,26.75
2023-05-01T04:30:15.324Z,24.27
2023-05-01T04:32:42.804Z,23.73
2023-05-01T04:35:12.427Z,24.27
2023-05-01T04:37:39.814Z,23.23
2023-05-01T04:40:11.450Z,24.95
2023-05-01T04:42:39.268Z,23.83
2023-05-01T04:45:07.684Z,25.00
2023-05-01T04:47:35.136Z,22.58
2023-05-01T04:50:02.554Z,21.23
2023-05-01T04:52:29.934Z,20.67
2023-05-01T04:54:57.808Z,25.10
2023-05-01T04:57:26.656Z,24.50
2023-05-01T04:59:54.489Z,23.02
2023-05-01T05:02:22.145Z,23.35
2023-05-01T05:04:50.112Z,23.52
2023-05-01T05:07:17.538Z,20.02
2023-05-01T05:09:44.912Z,23.42
2023-05-01T05:12:12.277Z,24.45
2023-05-01T05:14:41.121Z,23.98
2023-05-01T05:17:08.489Z,22.02
2023-05-01T05:19:36.121Z,24.23
2023-05-01T05:22:04.063Z,28.90
2023-05-01T05:24:31.545Z,24.05
2023-05-01T05:26:58.945Z,25.83
2023-05-01T05:29:26.370Z,24.55
2023-05-01T05:31:57.128Z,22.65
2023-05-01T05:34:24.559Z,24.35
2023-05-01T05:36:52.010Z,25.00
2023-05-01T05:39:20.483Z,24.65
2023-05-01T05:41:49.117Z,23.83
2023-05-01T05:44:16.523Z,26.05
2023-05-01T05:46:43.967Z,26.42
2023-05-01T05:49:12.767Z,23.73
2023-05-01T05:51:40.154Z,25.35
2023-05-01T05:54:07.689Z,23.08
2023-05-01T05:56:35.089Z,26.17
2023-05-01T05:59:04.461Z,27.00
2023-05-01T06:01:32.307Z,23.55
2023-05-01T06:03:59.741Z,24.20
2023-05-01T06:06:28.603Z,24.13
2023-05-01T06:08:56.007Z,23.15
2023-05-01T06:11:23.556Z,24.73
2023-05-01T06:13:51.295Z,22.65
2023-05-01T06:16:18.783Z,19.83
2023-05-01T06:18:46.817Z,21.40
2023-05-01T06:21:14.215Z,19.35
2023-05-01T06:23:42.902Z,21.42
2023-05-01T06:26:10.308Z,24.20
2023-05-01T06:28:37.667Z,20.55
2023-05-01T06:31:05.540Z,23.90
2023-05-01T06:33:34.187Z,18.92
2023-05-01T06:36:02.435Z,18.90
2023-05-01T06:38:29.879Z,16.08
2023-05-01T06:40:58.571Z,19.52
2023-05-01T06:43:28.046Z,17.20
2023-05-01T06:45:55.807Z,20.17
2023-05-01T06:48:23.258Z,16.98
2023-05-01T06:50:50.704Z,19.50
2023-05-01T06:53:18.091Z,18.88
2023-05-01T06:55:45.773Z,16.65
2023-05-01T06:58:23.271Z,18.25
2023-05-01T07:00:51.247Z,13.63
2023-05-01T07:03:18.865Z,15.15
2023-05-01T07:05:46.390Z,13.85
2023-05-01T07:08:14.341Z,11.98
2023-05-01T07:10:42.327Z,16.27
2023-05-01T07:13:10.434Z,14.50
2023-05-01T07:15:39.412Z,13.52
2023-05-01T07:18:10.065Z,12.00
2023-05-01T07:20:37.550Z,10.55
2023-05-01T07:23:07.307Z,12.45
2023-05-01T07:25:35.373Z,12.73
2023-05-01T07:28:04.572Z,12.98
2023-05-01T07:30:33.099Z,10.43
2023-05-01T07:33:02.000Z,12.63
2023-05-01T07:35:29.776Z,11.50
2023-05-01T07:37:57.228Z,11.95
2023-05-01T07:40:24.724Z,10.90
2023-05-01T07:42:54.429Z,9.80
2023-05-01T07:45:22.136Z,12.20
2023-05-01T07:47:50.141Z,12.02
2023-05-01T07:50:18.969Z,11.95
2023-05-01T07:52:46.624Z,9.77
2023-05-01T07:55:14.170Z,10.63
2023-05-01T07:57:41.871Z,8.10
2023-05-01T08:00:10.256Z,9.30
2023-05-01T08:02:37.740Z,7.68
2023-05-01T08:05:05.793Z,9.18
2023-05-01T08:07:34.485Z,8.38
2023-05-01T08:10:02.130Z,7.07
2023-05-01T08:12:31.109Z,8.02
2023-05-01T08:14:58.542Z,7.82
2023-05-01T08:17:26.084Z,9.45
2023-05-01T08:19:56.466Z,7.68
2023-05-01T08:22:24.398Z,8.45
2023-05-01T08:24:53.296Z,7.68
2023-05-01T08:27:20.850Z,7.18
2023-05-01T08:29:48.457Z,9.25
2023-05-01T08:32:16.161Z,6.65
2023-05-01T08:34:43.538Z,9.38
2023-05-01T08:37:10.938Z,9.63
2023-05-01T08:39:38.299Z,7.40
2023-05-01T08:42:07.123Z,7.28
2023-05-01T08:44:38.885Z,7.05
2023-05-01T08:47:13.590Z,9.25
2023-05-01T08:49:42.657Z,10.27
2023-05-01T08:52:12.467Z,6.55
2023-05-01T08:54:42.921Z,9.10
2023-05-01T08:57:12.948Z,6.47
2023-05-01T08:59:41.436Z,7.38
2023-05-01T09:02:10.490Z,9.43
2023-05-01T09:04:39.338Z,7.65
2023-05-01T09:07:07.188Z,8.15
2023-05-01T09:09:35.508Z,7.47
2023-05-01T09:12:09.847Z,8.10
2023-05-01T09:14:38.748Z,6.55
2023-05-01T09:17:06.236Z,9.18
2023-05-01T09:19:33.797Z,6.57
2023-05-01T09:22:01.378Z,6.63
2023-05-01T09:24:28.797Z,8.30
2023-05-01T09:26:58.105Z,8.77
2023-05-01T09:29:40.242Z,5.60
2023-05-01T09:32:15.050Z,8.00
2023-05-01T09:34:43.588Z,6.55
2023-05-01T09:37:13.974Z,6.80
2023-05-01T09:39:41.382Z,7.22
2023-05-01T09:42:09.567Z,6.88
2023-05-01T09:44:45.175Z,8.85
2023-05-01T09:47:13.856Z,8.07
2023-05-01T09:49:46.419Z,8.43
2023-05-01T09:52:14.435Z,10.45
2023-05-01T09:54:42.511Z,6.15
2023-05-01T09:57:10.026Z,7.35
2023-05-01T09:59:37.492Z,9.27
2023-05-01T10:02:06.568Z,8.15
2023-05-01T10:04:35.157Z,7.82
2023-05-01T10:07:13.173Z,6.45
2023-05-01T10:09:41.216Z,5.47
2023-05-01T10:12:08.670Z,5.90
2023-05-01T10:14:51.081Z,6.43
2023-05-01T10:17:20.621Z,8.75
2023-05-01T10:19:48.554Z,8.10
2023-05-01T10:22:16.477Z,7.72
2023-05-01T10:24:46.027Z,5.15
2023-05-01T10:27:14.206Z,4.50
2023-05-01T10:29:42.802Z,6.55
2023-05-01T10:32:10.808Z,6.20
2023-05-01T10:34:44.906Z,6.07
2023-05-01T10:37:18.701Z,5.75
2023-05-01T10:39:46.118Z,4.93
2023-05-01T10:42:14.842Z,4.93
2023-05-01T10:44:43.170Z,5.43
2023-05-01T10:47:46.615Z,4.38
2023-05-01T10:50:16.305Z,7.45
2023-05-01T10:53:18.139Z,4.80
2023-05-01T10:55:47.124Z,4.65
2023-05-01T10:58:15.841Z,6.57
2023-05-01T11:00:43.233Z,5.47
2023-05-01T11:03:40.062Z,4.95
2023-05-01T11:06:09.634Z,5.85
2023-05-01T11:08:39.109Z,5.53
2023-05-01T11:11:43.891Z,8.60
2023-05-01T11:14:11.509Z,5.22
2023-05-01T11:16:43.046Z,4.88
2023-05-01T11:19:12.399Z,4.55
2023-05-01T11:21:41.960Z,5.10
2023-05-01T11:24:10.236Z,4.20
2023-05-01T11:26:39.773Z,7.80
2023-05-01T11:29:10.124Z,4.78
2023-05-01T11:31:38.262Z,7.43
2023-05-01T11:34:06.866Z,6.82
2023-05-01T11:36:50.668Z,5.38
2023-05-01T11:39:19.341Z,6.70
2023-05-01T11:41:47.513Z,6.03
2023-05-01T11:44:16.829Z,5.05
2023-05-01T11:46:44.276Z,5.03
2023-05-01T11:49:12.161Z,6.35
2023-05-01T11:51:39.992Z,6.22
2023-05-01T11:54:10.259Z,8.20
2023-05-01T11:56:40.861Z,6.32
2023-05-01T11:59:13.093Z,5.18
2023-05-01T12:01:41.980Z,4.50
2023-05-01T12:04:09.732Z,7.00
2023-05-01T12:06:40.516Z,5.43
2023-05-01T12:09:09.542Z,6.63
2023-05-01T12:11:37.591Z,5.82
2023-05-01T12:14:05.656Z,4.93
2023-05-01T12:16:33.574Z,5.50
2023-05-01T12:19:01.637Z,4.28
2023-05-01T12:21:29.035Z,6.15
2023-05-01T12:23:58.192Z,6.40
2023-05-01T12:26:26.889Z,5.93
2023-05-01T12:28:55.569Z,4.93
2023-05-01T12:31:23.648Z,5.28
2023-05-01T12:33:55.417Z,5.25
2023-05-01T12:36:25.241Z,4.97
2023-05-01T12:38:58.372Z,4.40
2023-05-01T12:41:37.633Z,3.85
2023-05-01T12:44:17.813Z,3.03
2023-05-01T12:46:47.327Z,6.40
2023-05-01T12:49:18.551Z,3.22
2023-05-01T12:51:48.118Z,5.18
2023-05-01T12:54:20.670Z,4.20
2023-05-01T12:56:49.984Z,3.58
2023-05-01T12:59:22.392Z,6.35
2023-05-01T13:01:50.053Z,5.55
2023-05-01T13:04:22.111Z,4.53
2023-05-01T13:06:50.237Z,5.72
2023-05-01T13:09:18.250Z,3.88
2023-05-01T13:11:57.908Z,3.70
2023-05-01T13:14:25.720Z,4.18
2023-05-01T13:16:55.190Z,3.53
2023-05-01T13:19:28.677Z,3.83
2023-05-01T13:21:57.671Z,4.45
2023-05-01T13:24:25.581Z,5.82
2023-05-01T13:27:02.382Z,4.65
2023-05-01T13:29:31.982Z,3.78
2023-05-01T13:31:59.654Z,5.13
2023-05-01T13:34:30.619Z,3.30
2023-05-01T13:36:58.790Z,4.28
2023-05-01T13:39:26.408Z,3.38
2023-05-01T13:41:53.946Z,3.05
2023-05-01T13:44:23.465Z,3.67
2023-05-01T13:46:50.951Z,3.85
2023-05-01T13:49:22.610Z,3.65
2023-05-01T13:51:50.018Z,6.55
2023-05-01T13:54:17.968Z,3.00
2023-05-01T13:56:46.487Z,5.35
2023-05-01T13:59:13.920Z,3.50
2023-05-01T14:01:46.330Z,4.75
2023-05-01T14:04:17.850Z,4.32
2023-05-01T14:06:47.113Z,3.85
2023-05-01T14:09:17.862Z,3.35
2023-05-01T14:11:47.446Z,2.97
2023-05-01T14:14:17.160Z,2.60
2023-05-01T14:16:49.537Z,3.50
2023-05-01T14:19:18.249Z,4.30
2023-05-01T14:21:46.777Z,3.47
2023-05-01T14:24:17.633Z,4.30
2023-05-01T14:26:46.351Z,4.93
2023-05-01T14:29:22.242Z,3.70
2023-05-01T14:31:51.119Z,3.78
2023-05-01T14:34:19.251Z,3.75
2023-05-01T14:36:46.822Z,3.63
2023-05-01T14:39:15.980Z,3.40
2023-05-01T14:41:43.819Z,3.22
2023-05-01T14:44:16.426Z,2.67
2023-05-01T14:46:52.998Z,4.28
2023-05-01T14:49:24.250Z,2.20
2023-05-01T14:51:52.603Z,4.88
2023-05-01T14:54:21.123Z,3.97
2023-05-01T14:56:49.704Z,6.82
2023-05-01T14:59:17.420Z,4.03
2023-05-01T15:01:44.859Z,4.80
2023-05-01T15:04:13.062Z,3.25
2023-05-01T15:06:42.096Z,3.03
2023-05-01T15:09:09.715Z,4.70
2023-05-01T15:11:37.242Z,4.55
2023-05-01T15:14:05.844Z,3.80
2023-05-01T15:16:33.610Z,3.95
2023-05-01T15:19:01.070Z,4.50
2023-05-01T15:21:28.447Z,2.67
2023-05-01T15:23:57.150Z,5.45
2023-05-01T15:26:24.592Z,3.42
2023-05-01T15:28:51.983Z,5.53
2023-05-01T15:31:19.682Z,4.15
2023-05-01T15:33:50.911Z,5.43
2023-05-01T15:36:19.042Z,5.50
2023-05-01T15:38:47.526Z,3.28
2023-05-01T15:41:18.753Z,4.07
2023-05-01T15:43:46.508Z,3.33
2023-05-01T15:46:15.219Z,5.13
2023-05-01T15:48:42.734Z,6.95
2023-05-01T15:51:10.102Z,4.20
2023-05-01T15:53:37.461Z,4.18
2023-05-01T15:56:04.864Z,4.55
2023-05-01T15:58:33.552Z,4.03
2023-05-01T16:01:00.955Z,5.97
2023-05-01T16:03:28.535Z,4.85
2023-05-01T16:05:57.220Z,4.63
2023-05-01T16:08:24.791Z,5.13
2023-05-01T16:10:53.780Z,9.07
2023-05-01T16:13:21.244Z,5.63
2023-05-01T16:15:51.932Z,4.07
2023-05-01T16:18:21.100Z,6.03
2023-05-01T16:20:48.550Z,3.72
2023-05-01T16:23:16.225Z,5.38
2023-05-01T16:25:44.065Z,4.28
2023-05-01T16:28:12.955Z,4.40
2023-05-01T16:30:42.340Z,6.65
2023-05-01T16:33:17.626Z,4.35
2023-05-01T16:35:48.001Z,4.60
2023-05-01T16:38:15.416Z,3.40
2023-05-01T16:40:44.171Z,3.80
2023-05-01T16:43:11.574Z,4.03
2023-05-01T16:45:39.642Z,5.15
2023-05-01T16:48:07.414Z,6.35
2023-05-01T16:50:41.129Z,8.20
2023-05-01T16:53:08.517Z,5.68
2023-05-01T16:55:35.896Z,5.40
2023-05-01T16:58:03.304Z,4.90
2023-05-01T17:00:31.238Z,5.50
2023-05-01T17:02:58.971Z,7.10
2023-05-01T17:05:26.872Z,5.97
2023-05-01T17:07:55.641Z,4.75
2023-05-01T17:10:23.059Z,5.35
2023-05-01T17:12:50.452Z,4.00
2023-05-01T17:15:21.889Z,4.85
2023-05-01T17:17:49.448Z,4.78
2023-05-01T17:20:17.076Z,5.07
2023-05-01T17:22:45.636Z,4.68
2023-05-01T17:25:15.077Z,4.18
2023-05-01T17:27:42.793Z,3.60
2023-05-01T17:30:10.716Z,5.18
2023-05-01T17:32:38.241Z,7.05
2023-05-01T17:35:06.755Z,4.55
2023-05-01T17:37:37.877Z,4.72
2023-05-01T17:40:07.053Z,5.68
2023-05-01T17:42:37.094Z,6.63
2023-05-01T17:45:07.311Z,6.10
2023-05-01T17:47:34.730Z,6.82
2023-05-01T17:50:04.600Z,5.72
2023-05-01T17:52:31.979Z,7.57
2023-05-01T17:55:00.244Z,9.40
2023-05-01T17:57:28.245Z,3.92
2023-05-01T17:59:57.272Z,4.80
2023-05-01T18:02:26.161Z,4.30
2023-05-01T18:04:53.874Z,5.32
2023-05-01T18:07:21.270Z,6.78
2023-05-01T18:09:48.648Z,6.47
2023-05-01T18:12:16.062Z,4.63
2023-05-01T18:14:43.520Z,5.72
2023-05-01T18:17:12.279Z,5.90
2023-05-01T18:19:39.775Z,7.05
2023-05-01T18:22:07.125Z,5.47
2023-05-01T18:24:34.491Z,6.88
2023-05-01T18:27:02.148Z,5.60
2023-05-01T18:29:30.307Z,4.85
2023-05-01T18:31:57.726Z,5.80
2023-05-01T18:34:26.942Z,4.82
2023-05-01T18:36:54.644Z,6.90
2023-05-01T18:39:22.754Z,8.30
2023-05-01T18:41:50.470Z,8.23
2023-05-01T18:44:18.508Z,6.60
2023-05-01T18:46:46.047Z,6.63
2023-05-01T18:49:13.469Z,6.53
2023-05-01T18:51:42.252Z,6.68
2023-05-01T18:54:10.061Z,7.32
2023-05-01T18:56:37.557Z,6.40
2023-05-01T18:59:04.962Z,7.13
2023-05-01T19:01:32.440Z,6.25
2023-05-01T19:04:00.164Z,7.00
2023-05-01T19:06:27.675Z,6.70
2023-05-01T19:08:56.396Z,8.10
2023-05-01T19:11:26.138Z,6.03
2023-05-01T19:13:56.874Z,8.27
2023-05-01T19:16:24.803Z,9.02
2023-05-01T19:18:52.356Z,8.70
2023-05-01T19:21:19.830Z,6.80
2023-05-01T19:23:48.028Z,8.35
2023-05-01T19:26:16.856Z,6.03
2023-05-01T19:28:44.285Z,7.47
2023-05-01T19:31:13.149Z,7.35
2023-05-01T19:33:41.994Z,6.57
2023-05-01T19:36:09.413Z,6.55
2023-05-01T19:38:36.806Z,9.13
2023-05-01T19:41:04.255Z,7.50
2023-05-01T19:43:32.978Z,8.90
2023-05-01T19:46:00.479Z,9.00
2023-05-01T19:48:28.048Z,7.20
2023-05-01T19:50:55.625Z,8.35
2023-05-01T19:53:23.056Z,8.68
2023-05-01T19:55:50.544Z,8.35
2023-05-01T19:58:17.968Z,9.02
2023-05-01T20:00:46.964Z,8.63
2023-05-01T20:03:15.593Z,9.98
2023-05-01T20:05:43.234Z,11.27
2023-05-01T20:08:11.022Z,14.05
2023-05-01T20:10:38.417Z,14.32
2023-05-01T20:13:10.373Z,10.23
2023-05-01T20:15:38.426Z,13.27
2023-05-01T20:18:07.384Z,13.60
2023-05-01T20:20:35.000Z,11.32
2023-05-01T20:23:12.441Z,12.40
2023-05-01T20:25:39.901Z,8.40
2023-05-01T20:28:08.888Z,8.95
2023-05-01T20:30:38.224Z,9.50
2023-05-01T20:33:07.758Z,9.85
2023-05-01T20:35:35.566Z,10.98
2023-05-01T20:38:04.439Z,8.73
2023-05-01T20:40:33.362Z,8.63
2023-05-01T20:43:01.322Z,9.18
2023-05-01T20:45:30.563Z,7.85
2023-05-01T20:47:58.176Z,9.63
2023-05-01T20:50:27.673Z,8.52
2023-05-01T20:52:56.214Z,8.73
2023-05-01T20:55:24.774Z,8.45
2023-05-01T20:57:52.157Z,8.80
2023-05-01T21:00:19.735Z,8.00
2023-05-01T21:02:47.256Z,8.82
2023-05-01T21:05:16.251Z,10.20
2023-05-01T21:07:44.986Z,10.40
2023-05-01T21:10:14.427Z,10.13
2023-05-01T21:12:42.583Z,7.50
2023-05-01T21:15:11.442Z,8.52
2023-05-01T21:17:43.173Z,8.63
2023-05-01T21:20:14.376Z,8.70
2023-05-01T21:22:42.772Z,9.57
2023-05-01T21:25:12.134Z,9.90
2023-05-01T21:27:42.040Z,8.73
2023-05-01T21:30:15.137Z,8.90
2023-05-01T21:32:42.919Z,9.23
2023-05-01T21:35:13.837Z,9.27
2023-05-01T21:37:44.621Z,8.38
2023-05-01T21:40:14.887Z,9.13
2023-05-01T21:42:42.411Z,10.63
2023-05-01T21:45:12.625Z,8.93
2023-05-01T21:47:41.661Z,9.40
2023-05-01T21:50:12.782Z,9.70
2023-05-01T21:52:40.977Z,8.23
2023-05-01T21:55:10.155Z,7.60
2023-05-01T21:57:40.575Z,7.95
2023-05-01T22:00:10.129Z,10.73
2023-05-01T22:02:41.889Z,9.50
2023-05-01T22:05:10.413Z,8.15
2023-05-01T22:07:39.385Z,7.97
2023-05-01T22:10:08.778Z,8.23
2023-05-01T22:12:36.182Z,9.40
2023-05-01T22:15:05.805Z,9.60
2023-05-01T22:17:33.339Z,8.27
2023-05-01T22:20:00.923Z,9.52
2023-05-01T22:22:28.607Z,8.38
2023-05-01T22:24:56.028Z,9.23
2023-05-01T22:27:23.417Z,8.98
2023-05-01T22:29:50.793Z,7.78
2023-05-01T22:32:19.606Z,9.73
2023-05-01T22:34:47.106Z,10.45
2023-05-01T22:37:14.569Z,8.95
2023-05-01T22:39:41.968Z,11.57
2023-05-01T22:42:09.427Z,9.73
2023-05-01T22:44:36.819Z,10.02
2023-05-01T22:47:04.267Z,8.77
2023-05-01T22:49:33.331Z,8.10
2023-05-01T22:52:00.764Z,8.70
2023-05-01T22:54:28.225Z,9.48
2023-05-01T22:56:56.216Z,8.60
2023-05-01T22:59:23.979Z,8.30
2023-05-01T23:01:51.489Z,9.40
2023-05-01T23:04:18.974Z,8.43
2023-05-01T23:06:47.822Z,9.82
2023-05-01T23:09:15.641Z,9.10
2023-05-01T23:11:43.149Z,8.48
2023-05-01T23:14:10.592Z,9.18
2023-05-01T23:16:42.287Z,8.45
2023-05-01T23:19:19.246Z,9.77
2023-05-01T23:21:48.587Z,8.68
2023-05-01T23:24:18.652Z,8.35
2023-05-01T23:26:46.526Z,8.80
2023-05-01T23:29:16.009Z,8.88
2023-05-01T23:31:48.733Z,9.63
2023-05-01T23:34:17.949Z,9.13
2023-05-01T23:36:46.517Z,8.38
2023-05-01T23:39:16.149Z,10.18
2023-05-01T23:41:44.099Z,10.30
2023-05-01T23:44:11.908Z,9.02
2023-05-01T23:46:39.512Z,9.45
2023-05-01T23:49:07.388Z,8.90
2023-05-01T23:51:35.114Z,10.20
2023-05-01T23:54:04.221Z,10.55
2023-05-01T23:56:33.072Z,8.85
2023-05-01T23:59:00.459Z,9.57
